createdAt,value
2022-12-15T00:03:55.285Z,13.7
2022-12-15T00:08:57.592Z,14.1
2022-12-15T00:13:59.673Z,13.5
2022-12-15T00:19:01.711Z,13.5
2022-12-15T00:24:03.829Z,13.7
2022-12-15T00:29:05.861Z,13.7
2022-12-15T00:34:08.060Z,13.9
2022-12-15T00:39:10.311Z,13.6
2022-12-15T00:44:20.542Z,13.7
2022-12-15T00:49:13.143Z,13.4
2022-12-15T00:54:19.013Z,13.9
2022-12-15T00:59:21.244Z,13.6
2022-12-15T01:04:23.489Z,13.9
2022-12-15T01:09:25.775Z,14.1
2022-12-15T01:14:28.917Z,13.9
2022-12-15T01:19:30.890Z,14.4
2022-12-15T01:24:32.986Z,14.5
2022-12-15T01:29:35.224Z,13.8
2022-12-15T01:34:37.241Z,15
2022-12-15T01:39:39.409Z,20.5
2022-12-15T01:44:41.329Z,19.7
2022-12-15T01:49:43.318Z,19.7
2022-12-15T01:54:49.332Z,18.8
2022-12-15T01:59:51.584Z,18.8
2022-12-15T02:04:53.922Z,19.1
2022-12-15T02:09:54.595Z,20.3
2022-12-15T02:14:56.675Z,20.9
2022-12-15T02:19:58.888Z,21.1
2022-12-15T02:25:01.212Z,21.3
2022-12-15T02:30:03.227Z,22.2
2022-12-15T02:35:05.390Z,22.2
2022-12-15T02:40:07.518Z,21.9
2022-12-15T02:45:09.549Z,22.4
2022-12-15T02:50:11.834Z,31.1
2022-12-15T02:55:12.284Z,22.2
2022-12-15T03:00:14.473Z,22.1
2022-12-15T03:05:16.628Z,21.8
2022-12-15T03:10:18.767Z,22.4
2022-12-15T03:15:20.734Z,22.3
2022-12-15T03:20:22.738Z,20.7
2022-12-15T03:25:24.957Z,20.8
2022-12-15T03:30:30.553Z,21.2
2022-12-15T03:35:33.448Z,20.9
2022-12-15T03:40:35.603Z,20
2022-12-15T03:45:37.664Z,19.7
2022-12-15T03:50:39.894Z,19.9
2022-12-15T03:55:42.068Z,19.6
2022-12-15T04:00:43.995Z,19.4
2022-12-15T04:05:45.924Z,19.5
2022-12-15T04:10:48.079Z,19.4
2022-12-15T04:15:50.193Z,19
2022-12-15T04:20:53.853Z,19.2
2022-12-15T04:25:56.664Z,19
2022-12-15T04:30:59.162Z,19
2022-12-15T04:36:01.547Z,19.2
2022-12-15T04:41:04.081Z,18.3
2022-12-15T04:46:06.186Z,19.1
2022-12-15T04:51:08.377Z,18.3
2022-12-15T04:56:18.768Z,18.4
2022-12-15T05:01:11.047Z,24.9
2022-12-15T05:06:13.365Z,17.9
2022-12-15T05:11:15.457Z,18
2022-12-15T05:16:17.529Z,18.8
2022-12-15T05:21:19.767Z,18
2022-12-15T05:26:21.851Z,18.3
2022-12-15T05:31:24.242Z,19
2022-12-15T05:36:26.573Z,19.2
2022-12-15T05:41:28.601Z,19.8
2022-12-15T05:46:32.333Z,20.6
2022-12-15T05:51:34.628Z,20.6
2022-12-15T05:56:36.729Z,19.7
2022-12-15T06:01:38.830Z,21.1
2022-12-15T06:06:41.365Z,21
2022-12-15T06:11:43.493Z,21.4
2022-12-15T06:16:56.330Z,22.2
2022-12-15T06:21:51.110Z,22.2
2022-12-15T06:26:53.471Z,23.2
2022-12-15T06:31:55.643Z,24.1
2022-12-15T06:36:58.214Z,24.7
2022-12-15T06:42:03.233Z,25.3
2022-12-15T06:47:07.432Z,25.5
2022-12-15T06:52:16.441Z,36.3
2022-12-15T06:57:18.976Z,31.4
2022-12-15T07:02:29.505Z,27.8
2022-12-15T07:07:22.618Z,26.7
2022-12-15T07:12:27.485Z,29.2
2022-12-15T07:17:29.855Z,28.1
2022-12-15T07:22:31.906Z,28.9
2022-12-15T07:27:34.240Z,27.9
2022-12-15T07:32:36.331Z,42.9
2022-12-15T07:37:36.720Z,29.9
2022-12-15T07:42:38.702Z,30
2022-12-15T07:47:40.695Z,29.4
2022-12-15T07:52:42.695Z,29.8
2022-12-15T07:57:44.811Z,27.9
2022-12-15T08:02:51.275Z,29.1
2022-12-15T08:07:54.212Z,32.3
2022-12-15T08:12:56.247Z,30.4
2022-12-15T08:17:58.246Z,29
2022-12-15T08:23:00.408Z,30
2022-12-15T08:28:02.489Z,29.6
2022-12-15T08:33:04.618Z,41.1
2022-12-15T08:38:06.897Z,36.3
2022-12-15T08:43:09.131Z,41
2022-12-15T08:48:11.193Z,41.3
2022-12-15T08:53:32.283Z,40.1
2022-12-15T08:58:14.991Z,37
2022-12-15T09:03:17.310Z,37.2
2022-12-15T09:08:20.130Z,35.5
2022-12-15T09:13:22.534Z,35.8
2022-12-15T09:18:24.800Z,33
2022-12-15T09:23:27.333Z,33.2
2022-12-15T09:28:31.452Z,32.8
2022-12-15T09:33:34.445Z,32.7
2022-12-15T09:38:37.243Z,29.6
2022-12-15T09:43:47.619Z,27.8
2022-12-15T09:48:41.198Z,27.9
2022-12-15T09:53:56.674Z,27.2
2022-12-15T09:58:51.540Z,25.9
2022-12-15T10:03:54.718Z,25.1
2022-12-15T10:08:57.910Z,23.6
2022-12-15T10:14:00.367Z,24
2022-12-15T10:19:03.160Z,22.7
2022-12-15T10:24:05.872Z,23.7
2022-12-15T10:29:08.656Z,21.6
2022-12-15T10:34:11.042Z,19.7
2022-12-15T10:39:17.788Z,19.6
2022-12-15T10:44:20.325Z,17.8
2022-12-15T10:49:26.355Z,17.1
2022-12-15T10:54:28.530Z,17.6
2022-12-15T10:59:30.686Z,18
2022-12-15T11:04:33.019Z,18.9
2022-12-15T11:09:35.751Z,18.3
2022-12-15T11:14:37.902Z,16.9
2022-12-15T11:19:40.978Z,16.5
2022-12-15T11:24:44.184Z,16.1
2022-12-15T11:29:51.169Z,15.7
2022-12-15T11:34:53.224Z,16.2
2022-12-15T11:39:55.896Z,15.5
2022-12-15T11:44:58.200Z,15.7
2022-12-15T11:50:00.506Z,16.9
2022-12-15T11:55:05.332Z,16.8
2022-12-15T12:00:07.820Z,16.7
2022-12-15T12:05:10.010Z,16.8
2022-12-15T12:10:12.188Z,17.8
2022-12-15T12:15:14.277Z,19.3
2022-12-15T12:20:16.350Z,19.7
2022-12-15T12:25:18.515Z,19.2
2022-12-15T12:30:21.725Z,19.1
2022-12-15T12:35:33.747Z,18.4
2022-12-15T12:40:26.120Z,19.8
2022-12-15T12:45:28.481Z,20.7
2022-12-15T12:50:30.441Z,21.6
2022-12-15T12:55:32.504Z,21
2022-12-15T13:00:35.388Z,19.4
2022-12-15T13:05:38.195Z,18.5
2022-12-15T13:10:40.482Z,18
2022-12-15T13:15:42.569Z,18
2022-12-15T13:20:50.644Z,17.4
2022-12-15T13:25:57.011Z,16.1
2022-12-15T13:31:06.544Z,17.2
2022-12-15T13:36:09.057Z,17.1
2022-12-15T13:41:11.130Z,17.1
2022-12-15T13:46:13.414Z,18
2022-12-15T13:51:16.130Z,18.9
2022-12-15T13:56:18.232Z,20.3
2022-12-15T14:01:20.618Z,19.8
2022-12-15T14:06:20.741Z,22
2022-12-15T14:11:53.829Z,22.8
2022-12-15T14:16:26.604Z,22.9
2022-12-15T14:21:29.121Z,23.4
2022-12-15T14:26:31.881Z,23.1
2022-12-15T14:31:34.218Z,22.4
2022-12-15T14:36:36.817Z,20.9
2022-12-15T14:41:39.227Z,20.2
2022-12-15T14:46:41.577Z,22.3
2022-12-15T14:51:43.703Z,30.4
2022-12-15T14:56:45.738Z,27.5
2022-12-15T15:01:53.165Z,25.1
2022-12-15T15:06:53.075Z,18.5
2022-12-15T15:11:55.553Z,19.7
2022-12-15T15:16:57.863Z,23
2022-12-15T15:22:00.584Z,23.3
2022-12-15T15:27:02.913Z,22.6
2022-12-15T15:32:05.379Z,23.6
2022-12-15T15:37:07.395Z,24.1
2022-12-15T15:42:13.334Z,25.9
2022-12-15T15:47:15.729Z,25.6
2022-12-15T15:52:17.974Z,27.9
2022-12-15T15:57:20.203Z,28.2
2022-12-15T16:02:22.641Z,25
2022-12-15T16:07:25.569Z,23.8
2022-12-15T16:12:27.656Z,24
2022-12-15T16:17:29.867Z,24.9
2022-12-15T16:22:31.851Z,25.1
2022-12-15T16:27:33.874Z,22.5
2022-12-15T16:32:35.991Z,23.7
2022-12-15T16:37:40.666Z,24.6
2022-12-15T16:42:43.118Z,24.7
2022-12-15T16:47:45.430Z,26
2022-12-15T16:52:47.646Z,26.9
2022-12-15T16:57:49.970Z,28.1
2022-12-15T17:02:52.644Z,27.8
2022-12-15T17:07:55.768Z,26.8
2022-12-15T17:12:58.067Z,25.7
2022-12-15T17:18:00.161Z,25
2022-12-15T17:23:02.186Z,25.6
2022-12-15T17:28:04.306Z,25
2022-12-15T17:33:06.673Z,25.8
2022-12-15T17:38:08.877Z,26.4
2022-12-15T17:43:10.926Z,27
2022-12-15T17:48:13.132Z,27.2
2022-12-15T17:53:15.180Z,26.6
2022-12-15T17:58:17.220Z,26
2022-12-15T18:03:19.624Z,25.5
2022-12-15T18:08:23.789Z,25.4
2022-12-15T18:13:29.086Z,27.1
2022-12-15T18:18:27.093Z,27.8
2022-12-15T18:23:29.927Z,29.8
2022-12-15T18:28:33.604Z,29.3
2022-12-15T18:33:36.535Z,28.5
2022-12-15T18:38:38.891Z,27.9
2022-12-15T18:43:41.030Z,26.9
2022-12-15T18:48:43.106Z,27
2022-12-15T18:53:45.391Z,27.6
2022-12-15T18:58:47.383Z,28.8
2022-12-15T19:03:49.421Z,27.8
2022-12-15T19:08:51.585Z,28.7
2022-12-15T19:13:53.641Z,29.8
2022-12-15T19:18:55.998Z,29.6
2022-12-15T19:23:58.349Z,29.4
2022-12-15T19:29:00.421Z,29.3
2022-12-15T19:34:04.264Z,30.4
2022-12-15T19:39:06.715Z,31
2022-12-15T19:44:09.037Z,30.1
2022-12-15T19:49:14.249Z,29.9
2022-12-15T19:54:21.610Z,29
2022-12-15T19:59:24.173Z,29.6
2022-12-15T20:04:26.402Z,29.8
2022-12-15T20:09:32.074Z,29.4
2022-12-15T20:14:34.715Z,29.8
2022-12-15T20:19:39.185Z,30.5
2022-12-15T20:24:41.248Z,30.3
2022-12-15T20:29:43.439Z,31.1
2022-12-15T20:34:46.233Z,31.5
2022-12-15T20:39:57.335Z,31.1
2022-12-15T20:44:50.084Z,31.3
2022-12-15T20:49:54.855Z,29.6
2022-12-15T20:54:57.017Z,30.4
2022-12-15T20:59:59.148Z,30.2
2022-12-15T21:05:01.360Z,43.8
2022-12-15T21:10:03.541Z,31.1
2022-12-15T21:15:05.631Z,31.8
2022-12-15T21:20:07.964Z,33.5
2022-12-15T21:25:10.273Z,31.9
2022-12-15T21:30:12.711Z,31.5
2022-12-15T21:35:14.981Z,31.9
2022-12-15T21:40:20.143Z,30.6
2022-12-15T21:45:22.832Z,30.8
2022-12-15T21:50:27.440Z,29.4
2022-12-15T21:55:29.707Z,30.9
2022-12-15T22:00:31.958Z,30
2022-12-15T22:05:34.686Z,31.4
2022-12-15T22:10:37.055Z,31
2022-12-15T22:15:39.441Z,30.9
2022-12-15T22:20:42.079Z,55.5
2022-12-15T22:25:44.398Z,30.7
2022-12-15T22:30:46.521Z,30.7
2022-12-15T22:35:49.621Z,30.8
2022-12-15T22:40:52.134Z,31.2
2022-12-15T22:45:56.586Z,30.9
2022-12-15T22:50:59.036Z,31.6
2022-12-15T22:56:01.068Z,32.1
2022-12-15T23:01:03.153Z,32.9
2022-12-15T23:06:05.179Z,33.6
2022-12-15T23:11:07.359Z,32.5
2022-12-15T23:16:09.460Z,33.5
2022-12-15T23:21:11.747Z,32.6
2022-12-15T23:26:13.782Z,32.5
2022-12-15T23:31:16.384Z,32.6
2022-12-15T23:36:18.985Z,33.2
2022-12-15T23:41:21.142Z,32.1
2022-12-15T23:46:23.253Z,31.9
2022-12-15T23:51:25.412Z,31.8
2022-12-15T23:56:27.387Z,31.3
